Alyeska Resort
Max's Hourly Weather Roundup
ALYESKA_MAX 1/20/2017
Click Here for Graph

        DATE  TIME   Air  Wind  Wind  Wind  BATT   Rel
                    Temp   Spd   Dir  Gust  Volt  Hum%
                      F   MPH   AVG   MPH   AVG   AVG

   1/20/2017 10:00    17     4   102     9 12.60    69
   1/20/2017 09:00    17     5   124    13 12.60    65
   1/20/2017 08:00    16     4   197     9 12.60    58
   1/20/2017 07:00    15     3   178    12 12.60    57
   1/20/2017 06:00    15     3   122     8 12.61    56
   1/20/2017 05:00    14     1   145     4 12.62    53
   1/20/2017 04:00    14     3    88     6 12.63    46
   1/20/2017 03:00    13     3   104     5 12.64    41
   1/20/2017 02:00    13     1    99     3 12.66    33
   1/20/2017 01:00    12     1   217     3 12.68    28
   1/19/2017 24:00    12     2   265     5 12.71    27
   1/19/2017 23:00    11     2   292     4 12.74    29
   1/19/2017 22:00    11     5   269    10 12.78    33
   1/19/2017 21:00    10     7   230     9 12.83    45
   1/19/2017 20:00    10     6   244     8 12.88    51
   1/19/2017 19:00    10     9   263    13 12.95    53
   1/19/2017 18:00     8     8   307    11 13.05    53
   1/19/2017 17:00     7     5   264    10 13.37    52
   1/19/2017 16:00     5     4   182    11 13.94    53
   1/19/2017 15:00     4     6   192    12 13.91    54
   1/19/2017 14:00     4     6   190    11 13.89    54
   1/19/2017 13:00     3     8   204    15 13.88    54
   1/19/2017 12:00     1     7   185    13 13.90    56
   1/19/2017 11:00     2     7   253    15 13.69    55


Click Here for Graph